sensor_id;sensor_type;location;lat;lon;timestamp;pressure;altitude;pressure_sealevel;temperature;humidity
11339;BME280;5724;42.684;23.252;2023-05-22T00:01:27;94120.59;;;13.11;95.03
11339;BME280;5724;42.684;23.252;2023-05-22T00:03:53;94117.53;;;13.16;94.84
11339;BME280;5724;42.684;23.252;2023-05-22T00:06:19;94119.88;;;13.14;95.08
11339;BME280;5724;42.684;23.252;2023-05-22T00:08:44;94119.81;;;13.10;95.37
11339;BME280;5724;42.684;23.252;2023-05-22T00:11:10;94126.06;;;13.07;95.62
11339;BME280;5724;42.684;23.252;2023-05-22T00:13:35;94123.66;;;13.02;95.73
11339;BME280;5724;42.684;23.252;2023-05-22T00:16:01;94120.53;;;13.00;96.08
11339;BME280;5724;42.684;23.252;2023-05-22T00:18:27;94118.19;;;13.02;95.92
11339;BME280;5724;42.684;23.252;2023-05-22T00:20:53;94126.06;;;13.07;95.96
11339;BME280;5724;42.684;23.252;2023-05-22T00:23:18;94121.31;;;13.01;96.37
11339;BME280;5724;42.684;23.252;2023-05-22T00:25:44;94123.72;;;13.06;96.13
11339;BME280;5724;42.684;23.252;2023-05-22T00:28:10;94122.09;;;13.01;96.23
11339;BME280;5724;42.684;23.252;2023-05-22T00:30:36;94124.69;;;12.83;97.53
11339;BME280;5724;42.684;23.252;2023-05-22T00:33:01;94127.78;;;12.78;97.80
11339;BME280;5724;42.684;23.252;2023-05-22T00:35:28;94114.88;;;12.79;97.56
11339;BME280;5724;42.684;23.252;2023-05-22T00:37:53;94113.63;;;12.73;97.54
11339;BME280;5724;42.684;23.252;2023-05-22T00:40:19;94129.53;;;12.97;97.23
11339;BME280;5724;42.684;23.252;2023-05-22T00:42:45;94126.38;;;12.95;97.01
11339;BME280;5724;42.684;23.252;2023-05-22T00:45:12;94124.00;;;12.94;97.04
11339;BME280;5724;42.684;23.252;2023-05-22T00:47:38;94125.84;;;12.82;97.99
11339;BME280;5724;42.684;23.252;2023-05-22T00:50:04;94128.69;;;12.93;97.95
11339;BME280;5724;42.684;23.252;2023-05-22T00:52:30;94130.22;;;12.87;98.40
11339;BME280;5724;42.684;23.252;2023-05-22T00:54:56;94126.91;;;12.71;99.48
11339;BME280;5724;42.684;23.252;2023-05-22T00:57:22;94126.59;;;12.76;98.90
11339;BME280;5724;42.684;23.252;2023-05-22T00:59:49;94119.41;;;12.64;99.36
11339;BME280;5724;42.684;23.252;2023-05-22T01:02:15;94113.13;;;12.64;99.43
11339;BME280;5724;42.684;23.252;2023-05-22T01:04:44;94118.28;;;12.69;99.35
11339;BME280;5724;42.684;23.252;2023-05-22T01:07:13;94122.63;;;12.73;99.18
11339;BME280;5724;42.684;23.252;2023-05-22T01:09:38;94123.91;;;12.83;98.41
11339;BME280;5724;42.684;23.252;2023-05-22T01:12:20;94118.69;;;12.71;99.51
11339;BME280;5724;42.684;23.252;2023-05-22T01:23:38;94124.94;;;12.27;100.00
11339;BME280;5724;42.684;23.252;2023-05-22T01:29:07;94121.97;;;12.09;100.00
11339;BME280;5724;42.684;23.252;2023-05-22T01:31:42;94120.44;;;12.12;100.00
11339;BME280;5724;42.684;23.252;2023-05-22T01:34:10;94116.53;;;12.13;100.00
11339;BME280;5724;42.684;23.252;2023-05-22T01:36:37;94115.03;;;12.19;100.00
11339;BME280;5724;42.684;23.252;2023-05-22T01:39:04;94102.13;;;12.19;100.00
11339;BME280;5724;42.684;23.252;2023-05-22T01:41:34;94114.66;;;12.20;100.00
11339;BME280;5724;42.684;23.252;2023-05-22T01:44:00;94111.56;;;12.25;100.00
11339;BME280;5724;42.684;23.252;2023-05-22T01:46:27;94106.56;;;12.31;100.00
11339;BME280;5724;42.684;23.252;2023-05-22T01:48:53;94106.25;;;12.36;100.00
11339;BME280;5724;42.684;23.252;2023-05-22T01:51:46;94101.09;;;12.31;100.00
11339;BME280;5724;42.684;23.252;2023-05-22T01:57:18;94116.75;;;12.34;100.00
11339;BME280;5724;42.684;23.252;2023-05-22T01:59:53;94114.03;;;12.34;100.00
11339;BME280;5724;42.684;23.252;2023-05-22T02:02:20;94094.31;;;12.21;100.00
11339;BME280;5724;42.684;23.252;2023-05-22T02:04:59;94109.69;;;12.29;100.00
11339;BME280;5724;42.684;23.252;2023-05-22T02:07:27;94104.19;;;12.29;100.00
11339;BME280;5724;42.684;23.252;2023-05-22T02:09:54;94102.25;;;12.30;100.00
11339;BME280;5724;42.684;23.252;2023-05-22T02:12:22;94105.00;;;12.30;100.00
11339;BME280;5724;42.684;23.252;2023-05-22T02:14:47;94101.09;;;12.35;100.00
11339;BME280;5724;42.684;23.252;2023-05-22T02:17:13;94097.81;;;12.18;100.00
11339;BME280;5724;42.684;23.252;2023-05-22T02:19:39;94105.66;;;12.20;100.00
11339;BME280;5724;42.684;23.252;2023-05-22T02:22:04;94109.47;;;12.12;100.00
11339;BME280;5724;42.684;23.252;2023-05-22T02:24:31;94112.69;;;12.17;100.00
11339;BME280;5724;42.684;23.252;2023-05-22T02:26:56;94115.38;;;12.14;100.00
11339;BME280;5724;42.684;23.252;2023-05-22T02:29:22;94110.25;;;12.09;100.00
11339;BME280;5724;42.684;23.252;2023-05-22T02:31:48;94112.63;;;12.14;100.00
11339;BME280;5724;42.684;23.252;2023-05-22T02:34:13;94107.50;;;12.09;100.00
11339;BME280;5724;42.684;23.252;2023-05-22T02:36:39;94118.88;;;12.11;100.00
11339;BME280;5724;42.684;23.252;2023-05-22T02:39:05;94111.91;;;12.17;100.00
11339;BME280;5724;42.684;23.252;2023-05-22T02:41:30;94102.91;;;12.16;100.00
11339;BME280;5724;42.684;23.252;2023-05-22T02:43:56;94104.13;;;12.22;100.00
11339;BME280;5724;42.684;23.252;2023-05-22T02:46:21;94113.47;;;12.18;100.00
11339;BME280;5724;42.684;23.252;2023-05-22T02:48:46;94110.28;;;12.16;100.00
11339;BME280;5724;42.684;23.252;2023-05-22T02:51:12;94109.16;;;12.17;100.00
11339;BME280;5724;42.684;23.252;2023-05-22T02:53:39;94102.94;;;12.20;100.00
11339;BME280;5724;42.684;23.252;2023-05-22T02:56:08;94098.25;;;12.24;100.00
11339;BME280;5724;42.684;23.252;2023-05-22T02:58:37;94093.69;;;11.98;100.00
11339;BME280;5724;42.684;23.252;2023-05-22T03:01:04;94097.75;;;12.11;100.00
11339;BME280;5724;42.684;23.252;2023-05-22T03:03:33;94102.91;;;12.16;100.00
11339;BME280;5724;42.684;23.252;2023-05-22T03:05:59;94099.44;;;12.23;100.00
11339;BME280;5724;42.684;23.252;2023-05-22T03:08:25;94100.28;;;12.30;100.00
11339;BME280;5724;42.684;23.252;2023-05-22T03:10:52;94101.84;;;12.28;100.00
11339;BME280;5724;42.684;23.252;2023-05-22T03:13:18;94104.38;;;12.10;100.00
11339;BME280;5724;42.684;23.252;2023-05-22T03:15:44;94104.81;;;12.16;100.00
11339;BME280;5724;42.684;23.252;2023-05-22T03:18:10;94010.91;;;11.44;100.00
11339;BME280;5724;42.684;23.252;2023-05-22T03:20:35;94102.25;;;11.96;100.00
11339;BME280;5724;42.684;23.252;2023-05-22T03:23:00;94104.50;;;11.87;100.00
11339;BME280;5724;42.684;23.252;2023-05-22T03:25:26;94101.13;;;11.97;100.00
11339;BME280;5724;42.684;23.252;2023-05-22T03:27:51;94110.25;;;12.12;100.00
11339;BME280;5724;42.684;23.252;2023-05-22T03:30:17;94097.25;;;12.02;100.00
11339;BME280;5724;42.684;23.252;2023-05-22T03:32:42;94102.72;;;12.02;100.00
11339;BME280;5724;42.684;23.252;2023-05-22T03:35:08;94102.34;;;12.03;100.00
11339;BME280;5724;42.684;23.252;2023-05-22T03:37:33;94106.28;;;12.06;100.00
11339;BME280;5724;42.684;23.252;2023-05-22T03:39:59;94110.28;;;12.16;100.00
11339;BME280;5724;42.684;23.252;2023-05-22T03:42:24;94105.31;;;12.25;100.00
11339;BME280;5724;42.684;23.252;2023-05-22T03:44:50;94109.97;;;12.21;100.00
11339;BME280;5724;42.684;23.252;2023-05-22T03:47:15;94104.53;;;12.24;100.00
11339;BME280;5724;42.684;23.252;2023-05-22T03:49:41;94108.03;;;12.21;100.00
11339;BME280;5724;42.684;23.252;2023-05-22T03:52:08;94110.38;;;12.23;100.00
11339;BME280;5724;42.684;23.252;2023-05-22T03:54:34;94115.44;;;12.17;100.00
11339;BME280;5724;42.684;23.252;2023-05-22T03:56:59;94110.25;;;12.12;100.00
11339;BME280;5724;42.684;23.252;2023-05-22T03:59:25;94106.53;;;12.27;100.00
11339;BME280;5724;42.684;23.252;2023-05-22T04:01:50;94108.97;;;12.36;100.00
11339;BME280;5724;42.684;23.252;2023-05-22T04:04:16;94110.47;;;12.30;100.00
11339;BME280;5724;42.684;23.252;2023-05-22T04:06:42;94113.53;;;12.25;100.00
11339;BME280;5724;42.684;23.252;2023-05-22T04:09:11;94095.28;;;12.02;100.00
11339;BME280;5724;42.684;23.252;2023-05-22T04:11:37;94115.03;;;12.19;100.00
11339;BME280;5724;42.684;23.252;2023-05-22T04:14:07;94107.75;;;12.33;100.00
11339;BME280;5724;42.684;23.252;2023-05-22T04:16:33;94118.34;;;12.35;100.00
11339;BME280;5724;42.684;23.252;2023-05-22T04:18:59;94113.63;;;12.32;100.00
11339;BME280;5724;42.684;23.252;2023-05-22T04:21:28;94112.03;;;12.31;100.00
11339;BME280;5724;42.684;23.252;2023-05-22T04:23:54;94118.09;;;12.47;100.00
11339;BME280;5724;42.684;23.252;2023-05-22T04:26:20;94106.66;;;12.38;100.00
11339;BME280;5724;42.684;23.252;2023-05-22T04:28:46;94110.56;;;12.37;100.00
11339;BME280;5724;42.684;23.252;2023-05-22T04:31:12;94106.78;;;12.52;100.00
11339;BME280;5724;42.684;23.252;2023-05-22T04:33:37;94122.53;;;12.63;99.70
11339;BME280;5724;42.684;23.252;2023-05-22T04:36:05;94119.47;;;12.68;100.00
11339;BME280;5724;42.684;23.252;2023-05-22T04:38:31;94117.94;;;12.74;100.00
11339;BME280;5724;42.684;23.252;2023-05-22T04:41:01;94127.06;;;12.85;100.00
11339;BME280;5724;42.684;23.252;2023-05-22T04:43:27;94126.00;;;13.00;99.73
11339;BME280;5724;42.684;23.252;2023-05-22T04:45:54;94123.63;;;12.95;97.20
11339;BME280;5724;42.684;23.252;2023-05-22T04:48:21;94121.34;;;13.04;97.62
11339;BME280;5724;42.684;23.252;2023-05-22T04:50:50;94127.72;;;13.15;96.06
11339;BME280;5724;42.684;23.252;2023-05-22T04:53:16;94130.31;;;13.01;95.61
11339;BME280;5724;42.684;23.252;2023-05-22T04:55:42;94127.72;;;13.15;96.28
11339;BME280;5724;42.684;23.252;2023-05-22T04:58:08;94132.59;;;13.36;95.77
11339;BME280;5724;42.684;23.252;2023-05-22T05:00:33;94130.31;;;13.45;94.27
11339;BME280;5724;42.684;23.252;2023-05-22T05:02:59;94138.13;;;13.43;92.79
11339;BME280;5724;42.684;23.252;2023-05-22T05:05:25;94133.03;;;13.42;94.23
11339;BME280;5724;42.684;23.252;2023-05-22T05:07:50;94140.56;;;13.59;93.74
11339;BME280;5724;42.684;23.252;2023-05-22T05:10:17;94145.00;;;13.74;90.64
11339;BME280;5724;42.684;23.252;2023-05-22T05:12:43;94141.06;;;13.72;91.00
11339;BME280;5724;42.684;23.252;2023-05-22T05:15:09;94141.47;;;13.70;91.53
11339;BME280;5724;42.684;23.252;2023-05-22T05:17:34;94135.41;;;13.51;91.91
11339;BME280;5724;42.684;23.252;2023-05-22T05:20:00;94145.00;;;13.78;91.96
11339;BME280;5724;42.684;23.252;2023-05-22T05:22:25;94150.94;;;13.84;91.25
11339;BME280;5724;42.684;23.252;2023-05-22T05:24:51;94146.31;;;14.02;90.51
11339;BME280;5724;42.684;23.252;2023-05-22T05:27:16;94140.00;;;13.91;89.83
11339;BME280;5724;42.684;23.252;2023-05-22T05:29:42;94143.63;;;14.13;89.38
11339;BME280;5724;42.684;23.252;2023-05-22T05:32:07;94141.28;;;14.18;88.88
11339;BME280;5724;42.684;23.252;2023-05-22T05:34:34;94146.44;;;14.38;88.51
11339;BME280;5724;42.684;23.252;2023-05-22T05:37:00;94138.16;;;14.20;88.27
11339;BME280;5724;42.684;23.252;2023-05-22T05:39:26;94148.28;;;14.09;90.16
11339;BME280;5724;42.684;23.252;2023-05-22T05:41:52;94147.06;;;13.99;90.72
11339;BME280;5724;42.684;23.252;2023-05-22T05:44:17;94147.16;;;14.10;90.05
11339;BME280;5724;42.684;23.252;2023-05-22T05:46:43;94145.56;;;14.09;89.27
11339;BME280;5724;42.684;23.252;2023-05-22T05:49:09;94149.91;;;14.13;88.05
11339;BME280;5724;42.684;23.252;2023-05-22T05:51:38;94150.03;;;14.42;86.14
11339;BME280;5724;42.684;23.252;2023-05-22T05:54:04;94155.59;;;14.63;85.67
11339;BME280;5724;42.684;23.252;2023-05-22T05:56:29;94152.13;;;14.80;84.92
11339;BME280;5724;42.684;23.252;2023-05-22T05:58:55;94158.41;;;14.95;83.12
11339;BME280;5724;42.684;23.252;2023-05-22T06:01:21;94156.06;;;15.11;81.71
11339;BME280;5724;42.684;23.252;2023-05-22T06:03:50;94161.59;;;15.26;80.53
11339;BME280;5724;42.684;23.252;2023-05-22T06:06:15;94156.88;;;15.40;79.38
11339;BME280;5724;42.684;23.252;2023-05-22T06:08:42;94160.03;;;15.60;78.30
11339;BME280;5724;42.684;23.252;2023-05-22T06:11:08;94155.69;;;15.77;76.57
11339;BME280;5724;42.684;23.252;2023-05-22T06:13:34;94164.72;;;15.88;75.75
11339;BME280;5724;42.684;23.252;2023-05-22T06:15:59;94163.91;;;16.06;74.94
11339;BME280;5724;42.684;23.252;2023-05-22T06:18:25;94155.19;;;16.25;74.90
11339;BME280;5724;42.684;23.252;2023-05-22T06:20:51;94166.16;;;16.36;75.52
11339;BME280;5724;42.684;23.252;2023-05-22T06:23:17;94171.66;;;16.39;75.85
11339;BME280;5724;42.684;23.252;2023-05-22T06:25:42;94165.34;;;16.42;74.83
11339;BME280;5724;42.684;23.252;2023-05-22T06:28:08;94166.16;;;16.36;73.13
11339;BME280;5724;42.684;23.252;2023-05-22T06:30:35;94151.50;;;16.49;72.37
11339;BME280;5724;42.684;23.252;2023-05-22T06:33:00;94160.56;;;16.60;72.14
11339;BME280;5724;42.684;23.252;2023-05-22T06:35:28;94163.69;;;16.63;71.76
11339;BME280;5724;42.684;23.252;2023-05-22T06:37:53;94152.59;;;16.77;71.40
11339;BME280;5724;42.684;23.252;2023-05-22T06:40:19;94162.72;;;16.98;71.48
11339;BME280;5724;42.684;23.252;2023-05-22T06:42:44;94153.94;;;17.13;72.45
11339;BME280;5724;42.684;23.252;2023-05-22T06:45:10;94150.81;;;17.08;71.22
11339;BME280;5724;42.684;23.252;2023-05-22T06:47:36;94164.94;;;17.17;70.88
11339;BME280;5724;42.684;23.252;2023-05-22T06:50:01;94156.63;;;17.28;70.59
11339;BME280;5724;42.684;23.252;2023-05-22T06:52:27;94157.16;;;17.08;69.86
11339;BME280;5724;42.684;23.252;2023-05-22T06:54:52;94148.88;;;17.05;67.04
11339;BME280;5724;42.684;23.252;2023-05-22T06:57:18;94158.13;;;17.36;67.91
11339;BME280;5724;42.684;23.252;2023-05-22T06:59:43;94158.47;;;17.41;64.77
11339;BME280;5724;42.684;23.252;2023-05-22T07:02:09;94167.38;;;17.63;64.34
11339;BME280;5724;42.684;23.252;2023-05-22T07:04:34;94161.72;;;17.81;62.41
11339;BME280;5724;42.684;23.252;2023-05-22T07:07:01;94164.19;;;17.68;61.33
11339;BME280;5724;42.684;23.252;2023-05-22T07:09:26;94158.63;;;17.72;61.66
11339;BME280;5724;42.684;23.252;2023-05-22T07:11:52;94163.94;;;17.97;61.71
11339;BME280;5724;42.684;23.252;2023-05-22T07:14:17;94163.41;;;18.09;60.37
11339;BME280;5724;42.684;23.252;2023-05-22T07:16:42;94162.09;;;18.21;59.28
11339;BME280;5724;42.684;23.252;2023-05-22T07:19:08;94162.28;;;18.03;60.37
11339;BME280;5724;42.684;23.252;2023-05-22T07:21:35;94161.13;;;18.00;63.21
11339;BME280;5724;42.684;23.252;2023-05-22T07:24:01;94159.38;;;17.80;64.46
11339;BME280;5724;42.684;23.252;2023-05-22T07:26:34;94156.66;;;17.72;65.32
11339;BME280;5724;42.684;23.252;2023-05-22T07:29:00;94154.00;;;17.58;65.98
11339;BME280;5724;42.684;23.252;2023-05-22T07:31:25;94156.97;;;17.82;65.37
11339;BME280;5724;42.684;23.252;2023-05-22T07:33:51;94156.44;;;17.97;62.26
11339;BME280;5724;42.684;23.252;2023-05-22T07:36:16;94161.03;;;17.66;61.20
11339;BME280;5724;42.684;23.252;2023-05-22T07:38:43;94151.25;;;17.58;60.91
11339;BME280;5724;42.684;23.252;2023-05-22T07:41:09;94149.19;;;17.69;61.08
11339;BME280;5724;42.684;23.252;2023-05-22T07:43:35;94156.53;;;17.87;60.73
11339;BME280;5724;42.684;23.252;2023-05-22T07:46:00;94153.88;;;18.14;60.26
11339;BME280;5724;42.684;23.252;2023-05-22T07:48:25;94150.13;;;17.97;59.82
11339;BME280;5724;42.684;23.252;2023-05-22T07:50:51;94158.53;;;18.20;59.97
11339;BME280;5724;42.684;23.252;2023-05-22T07:53:16;94156.03;;;18.33;60.00
11339;BME280;5724;42.684;23.252;2023-05-22T07:55:42;94141.75;;;18.38;58.31
11339;BME280;5724;42.684;23.252;2023-05-22T07:58:07;94146.44;;;18.41;58.33
11339;BME280;5724;42.684;23.252;2023-05-22T08:00:35;94135.34;;;18.45;59.78
11339;BME280;5724;42.684;23.252;2023-05-22T08:03:01;94143.25;;;18.43;60.23
11339;BME280;5724;42.684;23.252;2023-05-22T08:05:26;94143.56;;;18.52;58.81
11339;BME280;5724;42.684;23.252;2023-05-22T08:07:52;94146.41;;;18.45;58.78
11339;BME280;5724;42.684;23.252;2023-05-22T08:10:18;94139.00;;;18.72;57.72
11339;BME280;5724;42.684;23.252;2023-05-22T08:12:43;94140.00;;;18.85;56.77
11339;BME280;5724;42.684;23.252;2023-05-22T08:15:09;94144.31;;;18.86;56.43
11339;BME280;5724;42.684;23.252;2023-05-22T08:17:35;94131.72;;;19.09;55.05
11339;BME280;5724;42.684;23.252;2023-05-22T08:20:00;94139.69;;;19.07;55.38
11339;BME280;5724;42.684;23.252;2023-05-22T08:22:28;94133.53;;;19.23;55.89
11339;BME280;5724;42.684;23.252;2023-05-22T08:24:54;94139.53;;;19.17;56.02
11339;BME280;5724;42.684;23.252;2023-05-22T08:27:19;94142.13;;;19.28;53.79
11339;BME280;5724;42.684;23.252;2023-05-22T08:29:45;94138.03;;;19.36;52.21
11339;BME280;5724;42.684;23.252;2023-05-22T08:32:10;94142.06;;;19.59;52.67
11339;BME280;5724;42.684;23.252;2023-05-22T08:34:36;94128.56;;;19.84;52.96
11339;BME280;5724;42.684;23.252;2023-05-22T08:37:01;94130.31;;;19.98;51.57
11339;BME280;5724;42.684;23.252;2023-05-22T08:39:27;94129.41;;;19.81;52.66
11339;BME280;5724;42.684;23.252;2023-05-22T08:41:53;94131.56;;;19.93;48.84
11339;BME280;5724;42.684;23.252;2023-05-22T08:44:18;94131.38;;;20.04;48.83
11339;BME280;5724;42.684;23.252;2023-05-22T08:46:45;94118.28;;;20.05;48.10
11339;BME280;5724;42.684;23.252;2023-05-22T08:49:12;94138.34;;;19.69;50.93
11339;BME280;5724;42.684;23.252;2023-05-22T08:51:41;94128.56;;;20.08;52.59
11339;BME280;5724;42.684;23.252;2023-05-22T08:54:07;94133.78;;;20.02;49.02
11339;BME280;5724;42.684;23.252;2023-05-22T08:56:37;94121.00;;;20.08;47.10
11339;BME280;5724;42.684;23.252;2023-05-22T08:59:03;94131.91;;;20.19;46.36
11339;BME280;5724;42.684;23.252;2023-05-22T09:01:31;94111.84;;;20.31;45.15
11339;BME280;5724;42.684;23.252;2023-05-22T09:03:59;94118.94;;;20.32;46.45
11339;BME280;5724;42.684;23.252;2023-05-22T09:08:53;94121.66;;;20.55;47.04
11339;BME280;5724;42.684;23.252;2023-05-22T09:11:19;94114.75;;;20.64;47.92
11339;BME280;5724;42.684;23.252;2023-05-22T09:13:45;94125.66;;;20.54;47.84
11339;BME280;5724;42.684;23.252;2023-05-22T09:16:11;94121.06;;;20.48;46.99
11339;BME280;5724;42.684;23.252;2023-05-22T09:18:37;94115.47;;;20.68;44.63
11339;BME280;5724;42.684;23.252;2023-05-22T09:21:04;94115.06;;;20.69;45.82
11339;BME280;5724;42.684;23.252;2023-05-22T09:23:30;94110.13;;;20.77;44.18
11339;BME280;5724;42.684;23.252;2023-05-22T09:25:57;94112.16;;;20.56;44.16
11339;BME280;5724;42.684;23.252;2023-05-22T09:28:23;94114.63;;;20.31;45.06
11339;BME280;5724;42.684;23.252;2023-05-22T09:30:50;94106.06;;;20.22;43.83
11339;BME280;5724;42.684;23.252;2023-05-22T09:33:17;94107.31;;;19.97;43.33
11339;BME280;5724;42.684;23.252;2023-05-22T09:35:45;94103.38;;;19.98;45.07
11339;BME280;5724;42.684;23.252;2023-05-22T09:38:11;94122.56;;;20.09;47.20
11339;BME280;5724;42.684;23.252;2023-05-22T09:40:38;94119.47;;;20.27;46.35
11339;BME280;5724;42.684;23.252;2023-05-22T09:43:11;94126.06;;;20.33;46.30
11339;BME280;5724;42.684;23.252;2023-05-22T09:45:38;94112.31;;;19.63;47.97
11339;BME280;5724;42.684;23.252;2023-05-22T09:48:08;94120.53;;;19.43;49.71
11339;BME280;5724;42.684;23.252;2023-05-22T09:50:34;94118.88;;;19.72;49.05
11339;BME280;5724;42.684;23.252;2023-05-22T09:53:01;94119.00;;;19.65;49.48
11339;BME280;5724;42.684;23.252;2023-05-22T09:55:28;94104.97;;;19.26;50.39
11339;BME280;5724;42.684;23.252;2023-05-22T09:57:54;94117.09;;;19.35;51.82
11339;BME280;5724;42.684;23.252;2023-05-22T10:00:21;94118.53;;;19.70;51.52
11339;BME280;5724;42.684;23.252;2023-05-22T10:03:21;94124.19;;;19.63;52.72
11339;BME280;5724;42.684;23.252;2023-05-22T10:05:51;94122.44;;;19.73;51.50
11339;BME280;5724;42.684;23.252;2023-05-22T10:08:23;94114.56;;;19.44;51.39
11339;BME280;5724;42.684;23.252;2023-05-22T10:10:51;94114.47;;;19.52;51.92
11339;BME280;5724;42.684;23.252;2023-05-22T10:13:20;94120.78;;;19.52;53.09
11339;BME280;5724;42.684;23.252;2023-05-22T10:15:46;94122.34;;;19.53;52.99
11339;BME280;5724;42.684;23.252;2023-05-22T10:18:14;94119.75;;;19.42;54.31
11339;BME280;5724;42.684;23.252;2023-05-22T10:20:43;94120.97;;;19.65;53.15
11339;BME280;5724;42.684;23.252;2023-05-22T10:23:11;94125.31;;;19.66;53.58
11339;BME280;5724;42.684;23.252;2023-05-22T10:25:37;94129.88;;;19.53;53.77
11339;BME280;5724;42.684;23.252;2023-05-22T10:28:02;94135.34;;;19.60;52.77
11339;BME280;5724;42.684;23.252;2023-05-22T10:31:13;94117.16;;;19.55;53.21
11339;BME280;5724;42.684;23.252;2023-05-22T10:33:39;94109.31;;;19.27;53.69
11339;BME280;5724;42.684;23.252;2023-05-22T10:41:37;94121.19;;;19.00;53.58
11339;BME280;5724;42.684;23.252;2023-05-22T10:44:02;94116.78;;;18.76;54.82
11339;BME280;5724;42.684;23.252;2023-05-22T10:46:31;94119.75;;;18.58;56.71
11339;BME280;5724;42.684;23.252;2023-05-22T10:48:58;94123.81;;;18.50;56.92
11339;BME280;5724;42.684;23.252;2023-05-22T10:51:23;94154.31;;;18.43;58.94
11339;BME280;5724;42.684;23.252;2023-05-22T10:53:57;94166.78;;;18.27;63.50
11339;BME280;5724;42.684;23.252;2023-05-22T10:56:23;94162.53;;;17.78;73.12
11339;BME280;5724;42.684;23.252;2023-05-22T10:58:58;94156.28;;;17.70;71.14
11339;BME280;5724;42.684;23.252;2023-05-22T11:01:27;94141.34;;;17.61;68.70
11339;BME280;5724;42.684;23.252;2023-05-22T11:17:12;94134.31;;;17.97;80.02
11339;BME280;5724;42.684;23.252;2023-05-22T11:19:41;94133.72;;;17.76;76.89
11339;BME280;5724;42.684;23.252;2023-05-22T11:22:06;94135.31;;;17.77;76.53
11339;BME280;5724;42.684;23.252;2023-05-22T11:24:32;94112.16;;;17.56;82.25
11339;BME280;5724;42.684;23.252;2023-05-22T11:27:04;94123.53;;;17.65;80.79
11339;BME280;5724;42.684;23.252;2023-05-22T11:29:31;94109.97;;;17.82;80.37
11339;BME280;5724;42.684;23.252;2023-05-22T11:31:57;94117.59;;;18.08;76.31
11339;BME280;5724;42.684;23.252;2023-05-22T11:34:24;94119.16;;;18.09;74.30
11339;BME280;5724;42.684;23.252;2023-05-22T11:36:51;94125.53;;;18.06;74.88
11339;BME280;5724;42.684;23.252;2023-05-22T11:39:17;94132.94;;;18.13;76.20
11339;BME280;5724;42.684;23.252;2023-05-22T11:41:42;94164.72;;;17.94;79.12
11339;BME280;5724;42.684;23.252;2023-05-22T11:44:08;94167.13;;;17.47;79.67
11339;BME280;5724;42.684;23.252;2023-05-22T11:46:33;94165.16;;;16.85;82.18
11339;BME280;5724;42.684;23.252;2023-05-22T11:48:59;94170.03;;;16.52;85.40
11339;BME280;5724;42.684;23.252;2023-05-22T11:51:26;94163.13;;;15.98;88.86
11339;BME280;5724;42.684;23.252;2023-05-22T11:53:51;94181.59;;;16.01;87.59
11339;BME280;5724;42.684;23.252;2023-05-22T11:56:19;94191.88;;;15.86;89.33
11339;BME280;5724;42.684;23.252;2023-05-22T11:58:47;94183.22;;;15.88;89.42
11339;BME280;5724;42.684;23.252;2023-05-22T12:01:13;94147.81;;;15.58;89.49
11339;BME280;5724;42.684;23.252;2023-05-22T12:03:39;94180.47;;;15.77;89.89
11339;BME280;5724;42.684;23.252;2023-05-22T12:06:06;94183.25;;;15.66;92.76
11339;BME280;5724;42.684;23.252;2023-05-22T12:08:32;94169.88;;;15.61;95.70
11339;BME280;5724;42.684;23.252;2023-05-22T12:10:58;94177.31;;;15.57;90.83
11339;BME280;5724;42.684;23.252;2023-05-22T12:13:28;94174.22;;;15.73;94.36
11339;BME280;5724;42.684;23.252;2023-05-22T12:15:56;94172.63;;;15.76;94.03
11339;BME280;5724;42.684;23.252;2023-05-22T12:18:24;94161.59;;;15.68;92.78
11339;BME280;5724;42.684;23.252;2023-05-22T12:20:56;94167.13;;;15.76;94.46
11339;BME280;5724;42.684;23.252;2023-05-22T12:23:23;94164.72;;;15.88;93.18
11339;BME280;5724;42.684;23.252;2023-05-22T12:26:08;94156.44;;;15.95;93.19
11339;BME280;5724;42.684;23.252;2023-05-22T12:28:34;94143.84;;;15.94;91.19
11339;BME280;5724;42.684;23.252;2023-05-22T12:31:00;94154.03;;;16.12;90.65
11339;BME280;5724;42.684;23.252;2023-05-22T12:33:29;94149.28;;;16.19;90.86
11339;BME280;5724;42.684;23.252;2023-05-22T12:35:55;94141.00;;;16.23;88.09
11339;BME280;5724;42.684;23.252;2023-05-22T12:38:25;94135.84;;;16.28;89.30
11339;BME280;5724;42.684;23.252;2023-05-22T12:40:51;94123.59;;;16.44;89.18
11339;BME280;5724;42.684;23.252;2023-05-22T12:43:17;94138.06;;;16.66;89.95
11339;BME280;5724;42.684;23.252;2023-05-22T12:45:42;94149.38;;;16.89;90.13
11339;BME280;5724;42.684;23.252;2023-05-22T12:48:08;94146.91;;;17.05;87.62
11339;BME280;5724;42.684;23.252;2023-05-22T12:50:34;94152.09;;;17.00;83.50
11339;BME280;5724;42.684;23.252;2023-05-22T12:53:03;94142.94;;;17.10;82.51
11339;BME280;5724;42.684;23.252;2023-05-22T12:55:28;94142.91;;;17.13;81.94
11339;BME280;5724;42.684;23.252;2023-05-22T12:57:54;94148.34;;;17.28;75.53
11339;BME280;5724;42.684;23.252;2023-05-22T13:00:21;94143.47;;;17.42;74.44
11339;BME280;5724;42.684;23.252;2023-05-22T13:02:47;94146.59;;;17.48;73.50
11339;BME280;5724;42.684;23.252;2023-05-22T13:05:12;94143.66;;;17.66;73.47
11339;BME280;5724;42.684;23.252;2023-05-22T13:07:40;94149.22;;;17.62;74.75
11339;BME280;5724;42.684;23.252;2023-05-22T13:10:06;94148.41;;;17.65;74.96
11339;BME280;5724;42.684;23.252;2023-05-22T13:12:31;94130.66;;;17.66;73.56
11339;BME280;5724;42.684;23.252;2023-05-22T13:14:58;94136.09;;;17.77;71.91
11339;BME280;5724;42.684;23.252;2023-05-22T13:17:24;94137.75;;;17.67;70.64
11339;BME280;5724;42.684;23.252;2023-05-22T13:19:50;94133.72;;;17.76;70.71
11339;BME280;5724;42.684;23.252;2023-05-22T13:22:15;94128.44;;;17.92;71.63
11339;BME280;5724;42.684;23.252;2023-05-22T13:24:41;94122.53;;;17.90;66.91
11339;BME280;5724;42.684;23.252;2023-05-22T13:27:06;94114.72;;;17.81;68.09
11339;BME280;5724;42.684;23.252;2023-05-22T13:29:32;94113.13;;;17.84;68.25
11339;BME280;5724;42.684;23.252;2023-05-22T13:31:57;94121.50;;;17.77;65.33